createdAt,value
2022-08-09T00:00:06.411Z,27.96
2022-08-09T00:00:33.984Z,27.99
2022-08-09T00:00:55.641Z,27.98
2022-08-09T00:01:17.448Z,27.98
2022-08-09T00:01:52.747Z,27.98
2022-08-09T00:02:18.103Z,27.98
2022-08-09T00:02:48.994Z,27.95
2022-08-09T00:04:06.322Z,27.91
2022-08-09T00:04:08.557Z,27.95
2022-08-09T00:04:36.605Z,27.91
2022-08-09T00:05:03.390Z,27.89
2022-08-09T00:06:19.383Z,27.87
2022-08-09T00:06:23.475Z,27.85
2022-08-09T00:06:45.450Z,27.82
2022-08-09T00:07:07.632Z,27.82
2022-08-09T00:07:44.703Z,27.83
2022-08-09T00:08:09.996Z,27.78
2022-08-09T00:08:33.238Z,27.81
2022-08-09T00:08:57.063Z,27.66
2022-08-09T00:09:20.937Z,27.84
2022-08-09T00:09:42.855Z,27.84
2022-08-09T00:10:06.525Z,27.83
2022-08-09T00:10:33.393Z,27.82
2022-08-09T00:10:58.429Z,27.82
2022-08-09T00:11:24.466Z,27.83
2022-08-09T00:12:03.588Z,27.82
2022-08-09T00:12:26.326Z,27.69
2022-08-09T00:12:57.182Z,27.84
2022-08-09T00:13:19.809Z,27.80
2022-08-09T00:13:41.630Z,27.85
2022-08-09T00:14:03.828Z,27.83
2022-08-09T00:15:14.675Z,27.80
2022-08-09T00:15:59.339Z,27.78
2022-08-09T00:16:26.568Z,27.74
2022-08-09T00:16:59.291Z,27.72
2022-08-09T00:18:05.036Z,27.70
2022-08-09T00:18:05.861Z,27.71
2022-08-09T00:18:35.943Z,27.70
2022-08-09T00:18:58.245Z,27.69
2022-08-09T00:19:20.097Z,27.69
2022-08-09T00:19:41.761Z,27.69
2022-08-09T00:20:12.240Z,27.64
2022-08-09T00:20:34.233Z,27.64
2022-08-09T00:20:55.998Z,27.68
2022-08-09T00:21:17.765Z,27.67
2022-08-09T00:21:43.158Z,27.68
2022-08-09T00:22:19.564Z,27.66
2022-08-09T00:22:41.515Z,27.62
2022-08-09T00:23:07.834Z,27.66
2022-08-09T00:23:57.368Z,27.65
2022-08-09T00:24:21.849Z,27.65
2022-08-09T00:24:45.905Z,27.65
2022-08-09T00:25:10.185Z,27.65
2022-08-09T00:25:35.462Z,27.63
2022-08-09T00:25:57.169Z,27.62
2022-08-09T00:26:19.391Z,27.62
2022-08-09T00:26:51.543Z,27.62
2022-08-09T00:27:15.293Z,27.62
2022-08-09T00:27:43.056Z,27.67
2022-08-09T00:28:06.633Z,27.64
2022-08-09T00:28:28.312Z,27.19
2022-08-09T00:28:52.595Z,27.72
2022-08-09T00:30:16.468Z,27.73
2022-08-09T00:30:24.882Z,27.74
2022-08-09T00:30:40.512Z,27.72
2022-08-09T00:31:50.639Z,27.70
2022-08-09T00:31:57.540Z,27.75
2022-08-09T00:32:22.733Z,27.74
2022-08-09T00:32:48.736Z,27.76
2022-08-09T00:33:12.620Z,27.67
2022-08-09T00:33:51.274Z,27.76
2022-08-09T00:34:13.549Z,27.75
2022-08-09T00:34:35.243Z,27.75
2022-08-09T00:34:58.751Z,27.80
2022-08-09T00:35:20.517Z,27.81
2022-08-09T00:35:43.786Z,27.80
2022-08-09T00:36:05.846Z,27.77
2022-08-09T00:36:30.826Z,27.75
2022-08-09T00:36:53.568Z,27.77
2022-08-09T00:37:15.276Z,27.75
2022-08-09T00:37:36.921Z,27.75
2022-08-09T00:37:58.663Z,27.74
2022-08-09T00:38:21.598Z,27.74
2022-08-09T00:38:43.859Z,27.74
2022-08-09T00:39:16.879Z,27.74
2022-08-09T00:40:09.028Z,27.72
2022-08-09T00:40:31.876Z,27.72
2022-08-09T00:40:53.792Z,27.73
2022-08-09T00:44:09.986Z,27.72
2022-08-09T00:44:10.202Z,27.71
2022-08-09T00:44:13.563Z,27.71
2022-08-09T00:44:15.388Z,27.75
2022-08-09T00:44:15.598Z,27.73
2022-08-09T00:44:47.615Z,27.75
2022-08-09T00:45:15.835Z,27.72
2022-08-09T00:45:38.039Z,27.70
2022-08-09T00:46:28.525Z,27.71
2022-08-09T00:47:04.458Z,27.71
2022-08-09T00:47:28.361Z,27.68
2022-08-09T00:47:57.777Z,27.66
2022-08-09T00:48:21.193Z,27.66
2022-08-09T00:48:49.374Z,27.65
2022-08-09T00:49:12.252Z,27.59
2022-08-09T00:49:36.622Z,27.59
2022-08-09T00:49:58.782Z,27.58
2022-08-09T00:50:20.497Z,27.55
2022-08-09T00:50:46.356Z,27.45
2022-08-09T00:51:16.409Z,27.53
2022-08-09T00:51:42.669Z,27.54
2022-08-09T00:52:17.973Z,27.53
2022-08-09T00:52:39.786Z,27.53
2022-08-09T00:53:08.867Z,27.52
2022-08-09T00:53:32.499Z,27.51
2022-08-09T00:53:58.915Z,27.52
2022-08-09T00:54:22.641Z,27.53
2022-08-09T00:54:53.605Z,27.53
2022-08-09T00:55:16.766Z,27.53
2022-08-09T00:56:04.475Z,27.52
2022-08-09T00:56:31.097Z,27.52
2022-08-09T00:56:52.706Z,27.50
2022-08-09T00:57:24.756Z,27.53
2022-08-09T00:57:59.368Z,27.52
2022-08-09T00:58:25.405Z,27.47
2022-08-09T00:58:51.495Z,27.51
2022-08-09T00:59:15.672Z,27.49
2022-08-09T00:59:53.605Z,27.33
2022-08-09T01:00:21.803Z,27.42
2022-08-09T01:00:44.910Z,27.35
2022-08-09T01:01:16.527Z,27.40
2022-08-09T01:01:44.913Z,27.43
2022-08-09T01:02:07.402Z,27.45
2022-08-09T01:02:31.124Z,27.45
2022-08-09T01:03:04.276Z,27.43
2022-08-09T01:03:40.686Z,27.41
2022-08-09T01:04:16.809Z,27.31
2022-08-09T01:04:49.851Z,27.40
2022-08-09T01:05:22.231Z,27.32
2022-08-09T01:05:53.444Z,27.35
2022-08-09T01:06:25.534Z,27.36
2022-08-09T01:07:13.829Z,27.30
2022-08-09T01:08:00.017Z,27.36
2022-08-09T01:08:34.835Z,26.80
2022-08-09T01:09:09.609Z,27.39
2022-08-09T01:09:40.094Z,27.43
2022-08-09T01:10:09.273Z,27.44
2022-08-09T01:10:37.211Z,27.41
2022-08-09T01:11:17.826Z,27.40
2022-08-09T01:11:53.244Z,27.39
2022-08-09T01:12:33.489Z,27.40
2022-08-09T01:13:03.685Z,27.41
2022-08-09T01:13:41.999Z,27.41
2022-08-09T01:14:23.934Z,27.39
2022-08-09T01:14:53.096Z,27.32
2022-08-09T01:15:19.148Z,27.37
2022-08-09T01:15:51.698Z,27.37
2022-08-09T01:16:20.708Z,27.37
2022-08-09T01:16:49.502Z,27.21
2022-08-09T01:17:19.270Z,27.35
2022-08-09T01:17:46.978Z,27.35
2022-08-09T01:18:14.427Z,27.33
2022-08-09T01:18:38.931Z,27.31
2022-08-09T01:19:08.123Z,27.33
2022-08-09T01:20:01.481Z,27.27
2022-08-09T01:20:35.877Z,27.30
2022-08-09T01:21:11.544Z,27.30
2022-08-09T01:21:50.879Z,27.29
2022-08-09T01:22:40.955Z,27.27
2022-08-09T01:24:02.107Z,27.21
2022-08-09T01:24:17.580Z,27.24
2022-08-09T01:24:52.210Z,27.23
2022-08-09T01:25:24.795Z,27.16
2022-08-09T01:26:03.402Z,27.17
2022-08-09T01:26:53.977Z,27.17
2022-08-09T01:27:20.838Z,26.99
2022-08-09T01:27:45.265Z,27.13
2022-08-09T01:28:14.642Z,27.12
2022-08-09T01:28:42.176Z,26.99
2022-08-09T01:29:09.032Z,27.09
2022-08-09T01:29:41.277Z,27.09
2022-08-09T01:30:28.673Z,27.10
2022-08-09T01:31:02.167Z,27.11
2022-08-09T01:32:31.997Z,27.09
2022-08-09T01:32:43.966Z,27.07
2022-08-09T01:32:59.996Z,27.04
2022-08-09T01:33:25.759Z,27.03
2022-08-09T01:33:49.159Z,27.04
2022-08-09T01:34:16.975Z,27.03
2022-08-09T01:34:44.687Z,26.96
2022-08-09T01:35:28.790Z,27.02
2022-08-09T01:36:03.255Z,27.02
2022-08-09T01:36:28.529Z,27.02
2022-08-09T01:36:51.528Z,27.03
2022-08-09T01:37:16.550Z,27.01
2022-08-09T01:38:07.987Z,26.98
2022-08-09T01:38:30.355Z,26.97
2022-08-09T01:38:53.801Z,26.98
2022-08-09T01:39:17.660Z,26.96
2022-08-09T01:39:41.380Z,26.96
2022-08-09T01:40:07.353Z,26.97
2022-08-09T01:40:31.934Z,26.98
2022-08-09T01:41:05.413Z,26.98
2022-08-09T01:41:30.161Z,26.98
2022-08-09T01:42:01.395Z,26.93
2022-08-09T01:42:27.244Z,26.95
2022-08-09T01:42:51.620Z,26.89
2022-08-09T01:43:14.646Z,26.93
2022-08-09T01:43:50.681Z,26.95
2022-08-09T01:44:16.519Z,26.91
2022-08-09T01:44:42.179Z,26.95
2022-08-09T01:45:05.746Z,26.95
2022-08-09T01:45:31.252Z,26.95
2022-08-09T01:45:54.363Z,26.95
2022-08-09T01:46:24.938Z,26.93
2022-08-09T01:46:51.371Z,26.92
2022-08-09T01:47:17.527Z,26.85
2022-08-09T01:47:44.902Z,26.91
2022-08-09T01:48:12.706Z,26.89
2022-08-09T01:48:39.640Z,26.91
2022-08-09T01:49:10.078Z,26.88
2022-08-09T01:49:38.791Z,26.89
2022-08-09T01:50:06.568Z,26.88
2022-08-09T01:50:37.175Z,26.88
2022-08-09T01:51:04.051Z,26.88
2022-08-09T01:51:27.980Z,26.88
2022-08-09T01:51:57.769Z,26.85
2022-08-09T01:52:20.659Z,26.85
2022-08-09T01:52:43.737Z,26.76
2022-08-09T01:53:19.395Z,26.84
2022-08-09T01:53:44.421Z,26.84
2022-08-09T01:54:13.737Z,26.82
2022-08-09T01:54:40.812Z,26.80
2022-08-09T01:55:03.988Z,26.82
2022-08-09T01:55:28.524Z,26.81
2022-08-09T01:55:56.222Z,26.80
2022-08-09T01:56:19.414Z,26.79
2022-08-09T01:56:51.365Z,26.81
2022-08-09T01:57:20.416Z,26.79
2022-08-09T01:57:46.231Z,26.80
2022-08-09T01:58:17.015Z,26.81
2022-08-09T01:58:40.181Z,26.80
2022-08-09T01:59:06.179Z,26.79
2022-08-09T01:59:32.491Z,26.80
2022-08-09T02:00:00.177Z,26.79
2022-08-09T02:00:36.244Z,26.80
2022-08-09T02:01:00.156Z,26.78
2022-08-09T02:01:58.000Z,26.81
2022-08-09T02:02:08.154Z,26.80
2022-08-09T02:02:33.174Z,26.80
2022-08-09T02:02:58.107Z,26.79
2022-08-09T02:03:21.537Z,26.80
2022-08-09T02:03:46.058Z,26.80
2022-08-09T02:04:10.611Z,26.81
2022-08-09T02:04:34.638Z,26.80
2022-08-09T02:05:04.058Z,26.79
2022-08-09T02:05:38.043Z,26.81
2022-08-09T02:06:11.869Z,26.82
2022-08-09T02:06:58.578Z,26.80
2022-08-09T02:08:39.193Z,26.74
2022-08-09T02:08:41.403Z,26.80
2022-08-09T02:08:58.525Z,26.78
2022-08-09T02:09:23.650Z,26.77
2022-08-09T02:09:59.444Z,26.76
2022-08-09T02:10:30.162Z,26.76
2022-08-09T02:10:54.039Z,26.60
2022-08-09T02:11:17.615Z,26.76
2022-08-09T02:11:42.659Z,26.78
2022-08-09T02:12:08.148Z,26.78
2022-08-09T02:12:33.472Z,26.77
2022-08-09T02:12:58.281Z,26.77
2022-08-09T02:13:26.036Z,26.80
2022-08-09T02:14:07.259Z,26.81
2022-08-09T02:14:31.371Z,26.81
2022-08-09T02:14:56.144Z,26.79
2022-08-09T02:15:19.910Z,26.80
2022-08-09T02:15:50.716Z,26.77
2022-08-09T02:16:13.892Z,26.76
2022-08-09T02:16:53.297Z,26.79
2022-08-09T02:18:01.595Z,26.77
2022-08-09T02:18:10.407Z,26.76
2022-08-09T02:18:35.060Z,26.77
2022-08-09T02:18:58.839Z,26.76
2022-08-09T02:19:21.173Z,26.80
2022-08-09T02:19:44.312Z,26.80
2022-08-09T02:20:08.655Z,26.78
2022-08-09T02:20:34.189Z,26.78
2022-08-09T02:21:02.958Z,26.82
2022-08-09T02:21:26.321Z,26.83
2022-08-09T02:21:55.708Z,26.84
2022-08-09T02:22:31.471Z,26.85
2022-08-09T02:23:03.520Z,26.84
2022-08-09T02:23:39.599Z,26.84
2022-08-09T02:24:06.052Z,26.82
2022-08-09T02:24:35.389Z,26.81
2022-08-09T02:25:01.735Z,26.80
2022-08-09T02:25:27.441Z,26.80
2022-08-09T02:25:55.895Z,26.79
2022-08-09T02:26:25.314Z,26.79
2022-08-09T02:26:52.559Z,26.80
2022-08-09T02:27:18.576Z,26.81
2022-08-09T02:28:00.550Z,26.83
2022-08-09T02:28:31.888Z,26.83
2022-08-09T02:28:56.257Z,26.85
2022-08-09T02:29:22.673Z,26.86
2022-08-09T02:29:48.571Z,26.87
2022-08-09T02:30:12.136Z,26.84
2022-08-09T02:30:41.730Z,26.81
2022-08-09T02:31:06.216Z,26.84
2022-08-09T02:31:34.045Z,26.82
2022-08-09T02:32:01.145Z,26.85
2022-08-09T02:32:26.838Z,26.86
2022-08-09T02:32:52.540Z,26.88
2022-08-09T02:33:18.551Z,26.89
2022-08-09T02:34:06.812Z,26.88
2022-08-09T02:34:40.660Z,26.87
2022-08-09T02:35:17.472Z,26.91
2022-08-09T02:36:02.710Z,26.90
2022-08-09T02:36:31.396Z,26.89
2022-08-09T02:36:55.168Z,26.87
2022-08-09T02:37:31.423Z,26.83
2022-08-09T02:37:59.094Z,26.83
2022-08-09T02:38:28.920Z,26.84
2022-08-09T02:38:55.618Z,26.82
2022-08-09T02:39:39.754Z,26.83
2022-08-09T02:40:10.389Z,26.84
2022-08-09T02:40:36.531Z,26.83
2022-08-09T02:41:03.220Z,26.82
2022-08-09T02:41:28.879Z,26.77
2022-08-09T02:41:54.454Z,26.79
2022-08-09T02:42:24.767Z,26.79
2022-08-09T02:42:51.181Z,26.78
2022-08-09T02:43:13.733Z,26.77
2022-08-09T02:43:42.535Z,26.78
2022-08-09T02:44:29.050Z,26.77
2022-08-09T02:44:57.027Z,26.78
2022-08-09T02:45:28.836Z,26.80
2022-08-09T02:45:53.941Z,26.79
2022-08-09T02:46:17.707Z,26.78
2022-08-09T02:46:41.040Z,26.76
2022-08-09T02:47:05.302Z,26.78
2022-08-09T02:47:34.000Z,26.76
2022-08-09T02:48:19.518Z,26.74
2022-08-09T02:48:57.650Z,26.72
2022-08-09T02:49:20.375Z,26.73
2022-08-09T02:50:06.137Z,26.74
2022-08-09T02:50:34.310Z,26.76
2022-08-09T02:50:58.843Z,26.75
2022-08-09T02:51:26.399Z,26.67
2022-08-09T02:51:53.665Z,26.74
2022-08-09T02:52:18.324Z,26.74
2022-08-09T02:52:44.254Z,26.73
2022-08-09T02:53:25.797Z,26.71
2022-08-09T02:54:00.395Z,26.71
2022-08-09T02:54:25.674Z,26.70
2022-08-09T02:54:54.537Z,26.67
2022-08-09T02:55:20.650Z,26.64
2022-08-09T02:55:57.261Z,26.64
2022-08-09T02:56:22.885Z,26.66
2022-08-09T02:56:51.177Z,26.67
2022-08-09T02:57:23.649Z,26.67
2022-08-09T02:58:00.201Z,26.67
2022-08-09T02:58:36.876Z,26.65
2022-08-09T02:59:03.347Z,26.64
2022-08-09T02:59:36.111Z,26.65
2022-08-09T03:00:21.117Z,26.68
2022-08-09T03:00:57.575Z,26.65
2022-08-09T03:01:22.040Z,26.65
2022-08-09T03:02:06.378Z,26.66
2022-08-09T03:02:31.567Z,26.63
2022-08-09T03:02:58.679Z,26.62
2022-08-09T03:04:12.530Z,26.63
2022-08-09T03:04:17.414Z,26.62
2022-08-09T03:04:43.189Z,26.64
2022-08-09T03:05:08.054Z,26.62
2022-08-09T03:05:41.196Z,26.62
2022-08-09T03:06:06.101Z,26.55
2022-08-09T03:06:30.546Z,26.63
2022-08-09T03:06:53.169Z,26.65
2022-08-09T03:07:17.515Z,26.67
2022-08-09T03:07:40.494Z,26.68
2022-08-09T03:08:18.297Z,26.70
2022-08-09T03:08:45.420Z,26.69
2022-08-09T03:09:08.572Z,26.67
2022-08-09T03:09:33.641Z,26.65
2022-08-09T03:10:00.524Z,26.64
2022-08-09T03:10:26.489Z,26.63
2022-08-09T03:10:51.065Z,26.62
2022-08-09T03:11:15.013Z,26.60
2022-08-09T03:12:05.562Z,26.60
2022-08-09T03:12:29.812Z,26.56
2022-08-09T03:12:54.677Z,26.57
2022-08-09T03:13:21.167Z,26.56
2022-08-09T03:13:59.396Z,26.57
2022-08-09T03:14:28.071Z,26.54
2022-08-09T03:14:51.601Z,26.51
2022-08-09T03:15:15.032Z,26.55
2022-08-09T03:15:40.453Z,26.55
2022-08-09T03:16:20.814Z,26.56
2022-08-09T03:16:45.064Z,26.56
2022-08-09T03:17:16.550Z,26.54
2022-08-09T03:17:44.094Z,26.55
2022-08-09T03:18:09.767Z,26.54
2022-08-09T03:18:35.437Z,26.53
2022-08-09T03:19:02.040Z,26.54
2022-08-09T03:19:52.795Z,26.58
2022-08-09T03:20:11.590Z,26.61
2022-08-09T03:20:33.927Z,26.60
2022-08-09T03:20:56.652Z,26.60
2022-08-09T03:21:20.334Z,26.58
2022-08-09T03:21:51.748Z,26.57
2022-08-09T03:22:24.895Z,26.47
2022-08-09T03:22:56.863Z,26.51
2022-08-09T03:23:24.247Z,26.58
2022-08-09T03:23:58.652Z,26.52
2022-08-09T03:24:42.189Z,26.52
2022-08-09T03:25:57.748Z,26.51
2022-08-09T03:25:58.957Z,26.50
2022-08-09T03:26:31.947Z,26.53
2022-08-09T03:26:54.598Z,26.54
2022-08-09T03:27:17.184Z,26.56
2022-08-09T03:27:48.000Z,26.56
2022-08-09T03:28:12.990Z,26.53
2022-08-09T03:28:37.979Z,26.52
2022-08-09T03:29:13.411Z,26.53
2022-08-09T03:29:58.026Z,26.53
2022-08-09T03:30:29.508Z,26.50
2022-08-09T03:30:55.674Z,26.50
2022-08-09T03:31:22.600Z,26.38
2022-08-09T03:31:59.530Z,26.49
2022-08-09T03:32:24.281Z,26.48
2022-08-09T03:32:49.722Z,26.49
2022-08-09T03:33:19.179Z,26.47
2022-08-09T03:33:54.963Z,26.43
2022-08-09T03:34:18.530Z,26.44
2022-08-09T03:34:41.474Z,26.43
2022-08-09T03:35:24.136Z,26.44
2022-08-09T03:36:13.003Z,26.41
2022-08-09T03:36:31.178Z,26.45
2022-08-09T03:36:59.803Z,26.45
2022-08-09T03:37:55.422Z,26.46
2022-08-09T03:38:06.916Z,26.47
2022-08-09T03:38:42.176Z,26.47
2022-08-09T03:39:05.137Z,26.46
2022-08-09T03:39:37.670Z,26.44
2022-08-09T03:40:01.075Z,26.43
2022-08-09T03:40:31.097Z,26.38
2022-08-09T03:40:53.162Z,26.40
2022-08-09T03:41:16.718Z,26.39
2022-08-09T03:41:45.730Z,26.37
2022-08-09T03:42:10.130Z,26.37
2022-08-09T03:42:32.188Z,26.37
2022-08-09T03:42:55.554Z,26.35
2022-08-09T03:43:19.554Z,26.35
2022-08-09T03:43:42.448Z,26.33
2022-08-09T03:44:08.978Z,26.32
2022-08-09T03:44:31.999Z,26.33
2022-08-09T03:44:53.781Z,26.32
2022-08-09T03:46:03.219Z,26.29
2022-08-09T03:46:05.422Z,26.33
2022-08-09T03:46:41.249Z,26.34
2022-08-09T03:47:04.488Z,26.33
2022-08-09T03:47:28.903Z,26.33
2022-08-09T03:47:58.295Z,26.33
2022-08-09T03:48:30.578Z,26.31
2022-08-09T03:48:55.050Z,26.31
2022-08-09T03:49:19.125Z,26.30
2022-08-09T03:49:58.416Z,26.30
2022-08-09T03:50:28.008Z,26.28
2022-08-09T03:50:54.967Z,26.25
2022-08-09T03:51:57.432Z,26.25
2022-08-09T03:52:04.434Z,26.26
2022-08-09T03:52:28.849Z,26.28
2022-08-09T03:52:51.841Z,26.26
2022-08-09T03:53:15.191Z,26.26
2022-08-09T03:53:39.096Z,26.25
2022-08-09T03:54:01.729Z,26.26
2022-08-09T03:54:29.976Z,26.28
2022-08-09T03:54:56.646Z,26.29
2022-08-09T03:55:19.752Z,26.30
2022-08-09T03:55:44.045Z,26.31
2022-08-09T03:56:07.020Z,26.30
2022-08-09T03:56:28.904Z,26.21
2022-08-09T03:56:52.229Z,26.31
2022-08-09T03:57:20.486Z,26.31
2022-08-09T03:57:44.607Z,26.31
2022-08-09T03:58:27.059Z,26.32
2022-08-09T03:58:50.209Z,26.32
2022-08-09T03:59:13.647Z,26.31
2022-08-09T03:59:52.928Z,26.30
2022-08-09T04:00:18.214Z,26.28
2022-08-09T04:00:41.768Z,26.28
2022-08-09T04:01:03.895Z,26.24
2022-08-09T04:01:28.081Z,26.27
2022-08-09T04:01:50.960Z,26.27
2022-08-09T04:02:14.383Z,26.28
2022-08-09T04:02:37.525Z,26.27
2022-08-09T04:03:08.345Z,26.29
2022-08-09T04:03:45.802Z,26.27
2022-08-09T04:04:14.836Z,26.28
2022-08-09T04:04:38.992Z,26.27
2022-08-09T04:05:06.479Z,26.28
2022-08-09T04:05:40.545Z,26.25
2022-08-09T04:06:04.637Z,26.23
2022-08-09T04:06:26.953Z,26.23
2022-08-09T04:06:50.009Z,26.22
2022-08-09T04:07:11.885Z,26.20
2022-08-09T04:07:53.229Z,26.19
2022-08-09T04:08:16.779Z,26.16
2022-08-09T04:08:38.791Z,26.16
2022-08-09T04:09:03.469Z,26.15
2022-08-09T04:09:47.676Z,26.16
2022-08-09T04:10:12.007Z,26.18
2022-08-09T04:10:33.853Z,26.18
2022-08-09T04:10:55.802Z,26.18
2022-08-09T04:11:24.303Z,26.15
2022-08-09T04:11:59.374Z,26.16
2022-08-09T04:12:40.072Z,26.18
2022-08-09T04:13:09.444Z,26.16
2022-08-09T04:14:36.766Z,26.14
2022-08-09T04:14:54.298Z,26.14
2022-08-09T04:15:02.085Z,26.11
2022-08-09T04:16:17.219Z,26.15
2022-08-09T04:16:19.509Z,26.14
2022-08-09T04:16:42.764Z,26.14
2022-08-09T04:17:05.473Z,26.13
2022-08-09T04:17:27.191Z,26.11
2022-08-09T04:17:51.312Z,26.11
2022-08-09T04:18:18.024Z,26.10
2022-08-09T04:18:41.733Z,26.11
2022-08-09T04:19:03.444Z,26.09
2022-08-09T04:19:51.254Z,26.10
2022-08-09T04:20:16.806Z,26.08
2022-08-09T04:20:38.604Z,26.08
2022-08-09T04:21:01.616Z,26.08
2022-08-09T04:21:25.604Z,26.09
2022-08-09T04:21:47.301Z,26.08
2022-08-09T04:22:11.901Z,26.07
2022-08-09T04:22:35.385Z,26.08
2022-08-09T04:23:03.892Z,26.08
2022-08-09T04:23:32.213Z,26.06
2022-08-09T04:23:57.576Z,26.05
2022-08-09T04:24:20.909Z,26.04
2022-08-09T04:24:48.529Z,26.01
2022-08-09T04:25:10.506Z,26.01
2022-08-09T04:25:32.803Z,26.01
2022-08-09T04:25:57.293Z,26.02
2022-08-09T04:26:18.959Z,26.01
2022-08-09T04:26:45.109Z,26.00
2022-08-09T04:27:06.949Z,26.00
2022-08-09T04:27:30.735Z,25.96
2022-08-09T04:28:02.530Z,26.02
2022-08-09T04:28:33.042Z,26.02
2022-08-09T04:29:03.706Z,26.04
2022-08-09T04:29:32.599Z,26.05
2022-08-09T04:29:54.516Z,26.06
2022-08-09T04:30:20.665Z,26.05
2022-08-09T04:30:45.067Z,26.07
2022-08-09T04:31:09.175Z,26.06
2022-08-09T04:31:37.691Z,26.07
2022-08-09T04:32:09.204Z,26.10
2022-08-09T04:32:37.212Z,26.09
2022-08-09T04:33:00.339Z,26.10
2022-08-09T04:33:22.964Z,26.10
2022-08-09T04:33:56.579Z,26.09
2022-08-09T04:34:30.687Z,26.07
2022-08-09T04:34:54.437Z,26.07
2022-08-09T04:35:21.608Z,26.06
2022-08-09T04:35:44.646Z,26.06
2022-08-09T04:36:06.891Z,26.06
2022-08-09T04:36:30.722Z,26.06
2022-08-09T04:36:52.566Z,26.05
2022-08-09T04:37:16.027Z,26.05
2022-08-09T04:37:45.538Z,26.05
2022-08-09T04:38:08.295Z,26.04
2022-08-09T04:38:30.934Z,26.05
2022-08-09T04:38:56.499Z,26.04
2022-08-09T04:39:18.229Z,26.04
2022-08-09T04:39:41.008Z,26.04
2022-08-09T04:40:03.268Z,26.02
2022-08-09T04:40:46.323Z,26.01
2022-08-09T04:41:09.812Z,26.04
2022-08-09T04:41:43.464Z,26.05
2022-08-09T04:42:09.289Z,26.07
2022-08-09T04:42:31.722Z,26.07
2022-08-09T04:42:57.178Z,26.09
2022-08-09T04:43:20.224Z,26.10
2022-08-09T04:43:53.906Z,26.11
2022-08-09T04:44:27.468Z,26.11
2022-08-09T04:44:49.591Z,26.12
2022-08-09T04:45:16.411Z,26.14
2022-08-09T04:45:54.045Z,26.13
2022-08-09T04:46:36.659Z,26.10
2022-08-09T04:47:04.528Z,26.10
2022-08-09T04:47:45.123Z,26.10
2022-08-09T04:48:12.608Z,26.10
2022-08-09T04:48:35.221Z,26.11
2022-08-09T04:48:57.615Z,26.11
2022-08-09T04:49:22.202Z,26.09
2022-08-09T04:50:02.941Z,26.08
2022-08-09T04:50:24.600Z,26.11
2022-08-09T04:50:55.486Z,26.12
2022-08-09T04:51:19.152Z,26.13
2022-08-09T04:51:42.931Z,26.14
2022-08-09T04:52:05.219Z,26.13
2022-08-09T04:52:29.511Z,26.15
2022-08-09T04:52:52.144Z,26.13
2022-08-09T04:53:15.376Z,26.14
2022-08-09T04:53:37.612Z,26.16
2022-08-09T04:53:59.453Z,26.16
2022-08-09T04:54:21.119Z,26.15
2022-08-09T04:54:44.880Z,26.15
2022-08-09T04:55:13.174Z,26.15
2022-08-09T04:55:41.072Z,26.14
2022-08-09T04:56:14.419Z,26.14
2022-08-09T04:56:42.665Z,26.14
2022-08-09T04:57:05.509Z,26.09
2022-08-09T04:57:58.481Z,26.18
2022-08-09T04:58:14.451Z,26.19
2022-08-09T04:58:36.224Z,26.19
2022-08-09T04:58:58.026Z,26.18
2022-08-09T04:59:21.104Z,26.17
2022-08-09T04:59:45.753Z,26.17
2022-08-09T05:00:14.162Z,26.16
2022-08-09T05:00:38.467Z,26.15
2022-08-09T05:01:05.480Z,26.16
2022-08-09T05:01:39.195Z,26.16
2022-08-09T05:02:02.878Z,26.16
2022-08-09T05:02:27.199Z,26.08
2022-08-09T05:02:52.626Z,26.20
2022-08-09T05:03:40.524Z,26.23
2022-08-09T05:03:58.755Z,26.25
2022-08-09T05:04:30.943Z,26.28
2022-08-09T05:04:55.494Z,26.29
2022-08-09T05:05:18.895Z,26.32
2022-08-09T05:06:06.603Z,26.33
2022-08-09T05:06:35.311Z,26.33
2022-08-09T05:06:58.340Z,26.37
2022-08-09T05:07:20.192Z,26.13
2022-08-09T05:07:42.957Z,26.39
2022-08-09T05:08:08.291Z,26.37
2022-08-09T05:08:30.061Z,26.36
2022-08-09T05:08:51.770Z,26.35
2022-08-09T05:09:14.474Z,26.36
2022-08-09T05:09:45.309Z,26.30
2022-08-09T05:10:13.014Z,26.40
2022-08-09T05:10:36.770Z,26.10
2022-08-09T05:10:58.727Z,26.41
2022-08-09T05:11:26.232Z,26.42
2022-08-09T05:11:53.915Z,26.37
2022-08-09T05:12:21.201Z,26.44
2022-08-09T05:12:45.116Z,26.43
2022-08-09T05:13:07.130Z,26.44
2022-08-09T05:13:33.908Z,26.42
2022-08-09T05:14:00.318Z,26.41
2022-08-09T05:14:22.053Z,26.41
2022-08-09T05:14:50.926Z,26.44
2022-08-09T05:15:38.310Z,26.42
2022-08-09T05:15:56.526Z,26.43
2022-08-09T05:16:19.720Z,26.41
2022-08-09T05:16:58.967Z,26.42
2022-08-09T05:18:39.482Z,26.40
2022-08-09T05:18:39.731Z,26.40
2022-08-09T05:18:57.743Z,26.43
2022-08-09T05:19:24.378Z,26.44
2022-08-09T05:19:48.917Z,26.43
2022-08-09T05:20:19.077Z,26.43
2022-08-09T05:20:40.816Z,26.44
2022-08-09T05:21:03.270Z,26.44
2022-08-09T05:21:46.716Z,26.45
2022-08-09T05:22:33.513Z,26.47
2022-08-09T05:23:53.964Z,26.48
2022-08-09T05:23:55.528Z,26.49
2022-08-09T05:24:21.142Z,26.51
2022-08-09T05:24:47.627Z,26.50
2022-08-09T05:25:09.731Z,26.50
2022-08-09T05:25:32.789Z,26.51
2022-08-09T05:25:54.466Z,26.51
2022-08-09T05:26:35.907Z,26.57
2022-08-09T05:27:00.246Z,26.60
2022-08-09T05:27:22.085Z,26.61
2022-08-09T05:27:45.486Z,26.59
2022-08-09T05:28:08.823Z,26.60
2022-08-09T05:28:31.658Z,26.61
2022-08-09T05:28:53.966Z,26.60
2022-08-09T05:29:21.571Z,26.60
2022-08-09T05:29:44.338Z,26.60
2022-08-09T05:30:12.075Z,26.58
2022-08-09T05:30:36.481Z,26.61
2022-08-09T05:30:58.271Z,26.63
2022-08-09T05:31:39.837Z,26.60
2022-08-09T05:32:02.793Z,26.57
2022-08-09T05:32:30.084Z,26.56
2022-08-09T05:32:53.176Z,26.62
2022-08-09T05:33:15.322Z,26.58
2022-08-09T05:33:42.609Z,26.63
2022-08-09T05:34:04.378Z,26.63
2022-08-09T05:34:31.156Z,26.65
2022-08-09T05:34:53.693Z,26.63
2022-08-09T05:35:16.373Z,26.64
2022-08-09T05:35:38.961Z,26.63
2022-08-09T05:36:08.863Z,26.63
2022-08-09T05:36:31.530Z,26.62
2022-08-09T05:36:56.354Z,26.64
2022-08-09T05:37:18.371Z,26.65
2022-08-09T05:37:47.832Z,26.63
2022-08-09T05:38:12.960Z,26.62
2022-08-09T05:38:46.061Z,26.64
2022-08-09T05:39:08.701Z,26.66
2022-08-09T05:39:36.524Z,26.67
2022-08-09T05:40:06.719Z,26.66
2022-08-09T05:40:28.730Z,26.69
2022-08-09T05:40:50.741Z,26.68
2022-08-09T05:41:12.952Z,26.70
2022-08-09T05:41:35.645Z,26.71
2022-08-09T05:42:01.603Z,26.72
2022-08-09T05:42:28.137Z,26.70
2022-08-09T05:42:50.527Z,26.70
2022-08-09T05:43:13.346Z,26.67
2022-08-09T05:43:38.796Z,26.71
2022-08-09T05:44:06.749Z,26.69
2022-08-09T05:44:32.293Z,26.67
2022-08-09T05:44:56.520Z,26.67
2022-08-09T05:45:19.706Z,26.72
2022-08-09T05:45:55.745Z,26.75
2022-08-09T05:46:18.964Z,26.76
2022-08-09T05:46:41.649Z,26.77
2022-08-09T05:47:04.866Z,26.72
2022-08-09T05:47:30.158Z,26.75
2022-08-09T05:47:56.807Z,26.63
2022-08-09T05:48:22.446Z,26.68
2022-08-09T05:48:58.850Z,26.78
2022-08-09T05:50:23.904Z,26.77
2022-08-09T05:50:24.325Z,26.79
2022-08-09T05:50:51.013Z,26.80
2022-08-09T05:51:41.659Z,26.81
2022-08-09T05:52:08.318Z,26.77
2022-08-09T05:52:31.635Z,26.75
2022-08-09T05:52:55.099Z,26.76
2022-08-09T05:53:21.728Z,26.76
2022-08-09T05:53:57.422Z,26.71
2022-08-09T05:54:20.005Z,26.77
2022-08-09T05:54:41.718Z,26.71
2022-08-09T05:55:07.343Z,26.65
2022-08-09T05:55:31.729Z,26.80
2022-08-09T05:55:53.529Z,26.80
2022-08-09T05:56:16.280Z,26.81
2022-08-09T05:56:39.100Z,26.81
2022-08-09T05:57:19.115Z,26.79
2022-08-09T05:57:55.917Z,26.80
2022-08-09T05:58:18.976Z,26.73
2022-08-09T05:58:41.606Z,26.82
2022-08-09T05:59:03.816Z,26.83
2022-08-09T05:59:25.670Z,26.84
2022-08-09T05:59:47.599Z,26.85
2022-08-09T06:00:13.075Z,26.84
2022-08-09T06:00:36.181Z,26.84
2022-08-09T06:00:58.843Z,26.87
2022-08-09T06:01:21.521Z,26.86
2022-08-09T06:01:43.473Z,26.87
2022-08-09T06:02:05.254Z,26.86
2022-08-09T06:02:27.026Z,26.87
2022-08-09T06:02:54.275Z,26.86
2022-08-09T06:03:20.053Z,26.78
2022-08-09T06:03:54.475Z,26.86
2022-08-09T06:04:23.411Z,26.86
2022-08-09T06:04:46.009Z,26.87
2022-08-09T06:05:09.021Z,26.84
2022-08-09T06:05:56.913Z,26.84
2022-08-09T06:06:16.234Z,26.84
2022-08-09T06:06:37.985Z,26.87
2022-08-09T06:07:00.793Z,26.83
2022-08-09T06:07:22.905Z,26.74
2022-08-09T06:07:49.576Z,26.88
2022-08-09T06:08:27.850Z,26.90